当前位置: 首页>>视频一区 >>KBEA-005磁力链 2017欧美mv app 欧美整集整片poly

KBEA-005磁力链 2017欧美mv app 欧美整集整片poly

添加时间:    

突撃!オシッコをガマンできず木陰で放尿してるお姉さんに大胆不敵なイタズラ!!
005EMG 总线主板 DIM-005-DCN REXROTH 压力阀 DBDS 10 P1X/315V R900424159 HAWE 液压阀 PMV52-44(1058835)
0052752017年5月26日 -  m‎ounta‎in ri‎dges ‎ideal‎plac‎e balc‎kbea‎rs ha(2‎005.6‎) ‎在宾西法尼‎亚州的朗庞‎德村庄有一‎栋上百年历
005481004 REBN-003 REBN-001 WKS-005 NSH-001 KTDS-549 HYAZ-052 BOTN-024 BOTN-023 KBEA-011 AXAA-007 DKYF-24
0054499/7-KBEA 被动齿轮\HY60减速箱配套EA 编织刹车块\JC21A-03-16EA 波浪式筛网\105069538目EA 301CEP-Q005\
0056122017年11月14日 -  1KG1JDzfJJnDe4p4TXcHA7x3kzLTDj4k1A 0.00507310 1AxaM3521RwCcnDcaDfFV9tAVdpLz3kQHg 0.00484643 1Pn2q7yLCnF69LTHmmGUmG6ZVYBDqeVnMc 0.00601315
005449基金净值EMG-4792 DMCR250-A-25-MC005-DCSWOERNER VOE-D/8/2L/2L/2L/2L/2L/2L/2L/2LHUBNER-0202 HOG10+
0056442018年12月31日 -  KBEA 310715Z AUTO 29007KT 2SM BR OVC004 09/07 A2990 RMK AO2 T008500652018/12/31 07:06KALI 310703Z 3107/0106 VRB04KT 4SM -RA BR OVC005
002.jpg345.25 KBB(fH 003.jpg839.\NX 129.tif47.14 KB&K3Q 130.tif52.61 KBKr*gFj 131.tif76.19 KBM 132.
2012年5月15日 -  番号:KBEA-005 上映时间:2012-05-15 时长:95分钟 制作商:マニアゼロ 发行商:排泄屋菊兵衞 演员表: 下载说明:(用微信扫描下方二维码关注账号后回复“
9/7-KBEA 被动齿轮\HY60减速箱配套EA 编织刹车块\JC21A-03-16EA 波浪式筛网\105069538目EA 301CEP-Q005\
选择进入其中一个欧美高清MV视频APP下载的网页,我们可以看到网站头部提供了欧美高清MV视频的下载链接,有

随机推荐

网站导航 福利地图